sensor_id;sensor_type;location;lat;lon;timestamp;P1;durP1;ratioP1;P2;durP2;ratioP2
14096;SDS011;7125;48.106;11.544;2023-03-23T00:01:06;2.87;;;2.60;;
14096;SDS011;7125;48.106;11.544;2023-03-23T00:03:35;2.97;;;2.60;;
14096;SDS011;7125;48.106;11.544;2023-03-23T00:06:02;2.90;;;2.23;;
14096;SDS011;7125;48.106;11.544;2023-03-23T00:08:32;2.53;;;2.23;;
14096;SDS011;7125;48.106;11.544;2023-03-23T00:11:02;4.43;;;2.70;;
14096;SDS011;7125;48.106;11.544;2023-03-23T00:13:33;3.43;;;2.90;;
14096;SDS011;7125;48.106;11.544;2023-03-23T00:16:01;5.60;;;3.53;;
14096;SDS011;7125;48.106;11.544;2023-03-23T00:18:28;2.63;;;2.23;;
14096;SDS011;7125;48.106;11.544;2023-03-23T00:20:56;2.20;;;2.00;;
14096;SDS011;7125;48.106;11.544;2023-03-23T00:23:24;3.97;;;2.50;;
14096;SDS011;7125;48.106;11.544;2023-03-23T00:25:52;3.27;;;2.40;;
14096;SDS011;7125;48.106;11.544;2023-03-23T00:28:22;3.97;;;2.10;;
14096;SDS011;7125;48.106;11.544;2023-03-23T00:30:56;2.43;;;2.23;;
14096;SDS011;7125;48.106;11.544;2023-03-23T00:33:24;3.87;;;1.90;;
14096;SDS011;7125;48.106;11.544;2023-03-23T00:35:54;4.23;;;2.60;;
14096;SDS011;7125;48.106;11.544;2023-03-23T00:38:21;3.13;;;2.50;;
14096;SDS011;7125;48.106;11.544;2023-03-23T00:40:52;3.53;;;1.97;;
14096;SDS011;7125;48.106;11.544;2023-03-23T00:43:20;3.67;;;2.33;;
14096;SDS011;7125;48.106;11.544;2023-03-23T00:45:49;4.20;;;3.80;;
14096;SDS011;7125;48.106;11.544;2023-03-23T00:48:20;2.93;;;2.63;;
14096;SDS011;7125;48.106;11.544;2023-03-23T00:50:48;2.57;;;1.80;;
14096;SDS011;7125;48.106;11.544;2023-03-23T00:53:16;2.30;;;1.50;;
14096;SDS011;7125;48.106;11.544;2023-03-23T00:55:44;2.20;;;2.00;;
14096;SDS011;7125;48.106;11.544;2023-03-23T00:58:12;2.80;;;1.93;;
14096;SDS011;7125;48.106;11.544;2023-03-23T01:00:40;2.67;;;1.70;;
14096;SDS011;7125;48.106;11.544;2023-03-23T01:03:08;4.17;;;2.07;;
14096;SDS011;7125;48.106;11.544;2023-03-23T01:05:38;2.37;;;1.60;;
14096;SDS011;7125;48.106;11.544;2023-03-23T01:08:06;3.43;;;2.00;;
14096;SDS011;7125;48.106;11.544;2023-03-23T01:10:33;1.90;;;1.80;;
14096;SDS011;7125;48.106;11.544;2023-03-23T01:13:03;3.33;;;2.30;;
14096;SDS011;7125;48.106;11.544;2023-03-23T01:15:31;2.43;;;1.90;;
14096;SDS011;7125;48.106;11.544;2023-03-23T01:17:58;8.00;;;2.07;;
14096;SDS011;7125;48.106;11.544;2023-03-23T01:20:25;1.97;;;1.70;;
14096;SDS011;7125;48.106;11.544;2023-03-23T01:22:55;1.80;;;1.60;;
14096;SDS011;7125;48.106;11.544;2023-03-23T01:25:26;3.00;;;1.93;;
14096;SDS011;7125;48.106;11.544;2023-03-23T01:27:53;2.23;;;1.80;;
14096;SDS011;7125;48.106;11.544;2023-03-23T01:30:21;2.40;;;2.17;;
14096;SDS011;7125;48.106;11.544;2023-03-23T01:32:48;4.10;;;2.20;;
14096;SDS011;7125;48.106;11.544;2023-03-23T01:35:15;2.70;;;1.97;;
14096;SDS011;7125;48.106;11.544;2023-03-23T01:37:42;2.40;;;1.97;;
14096;SDS011;7125;48.106;11.544;2023-03-23T01:40:11;2.80;;;1.67;;
14096;SDS011;7125;48.106;11.544;2023-03-23T01:42:39;2.07;;;1.77;;
14096;SDS011;7125;48.106;11.544;2023-03-23T01:48:44;4.87;;;2.30;;
14096;SDS011;7125;48.106;11.544;2023-03-23T01:51:12;1.87;;;1.60;;
14096;SDS011;7125;48.106;11.544;2023-03-23T01:53:42;2.07;;;1.67;;
14096;SDS011;7125;48.106;11.544;2023-03-23T01:56:12;3.07;;;2.07;;
14096;SDS011;7125;48.106;11.544;2023-03-23T01:58:45;5.63;;;1.83;;
14096;SDS011;7125;48.106;11.544;2023-03-23T02:01:13;2.73;;;1.97;;
14096;SDS011;7125;48.106;11.544;2023-03-23T02:03:44;2.50;;;2.03;;
14096;SDS011;7125;48.106;11.544;2023-03-23T02:06:13;1.60;;;1.27;;
14096;SDS011;7125;48.106;11.544;2023-03-23T02:09:02;2.43;;;2.07;;
14096;SDS011;7125;48.106;11.544;2023-03-23T02:11:31;2.00;;;1.70;;
14096;SDS011;7125;48.106;11.544;2023-03-23T02:13:59;2.93;;;1.90;;
14096;SDS011;7125;48.106;11.544;2023-03-23T02:16:33;2.07;;;1.63;;
14096;SDS011;7125;48.106;11.544;2023-03-23T02:19:11;2.03;;;1.77;;
14096;SDS011;7125;48.106;11.544;2023-03-23T02:24:59;2.50;;;1.90;;
14096;SDS011;7125;48.106;11.544;2023-03-23T02:27:58;3.70;;;1.40;;
14096;SDS011;7125;48.106;11.544;2023-03-23T02:30:41;2.93;;;2.40;;
14096;SDS011;7125;48.106;11.544;2023-03-23T02:33:49;2.97;;;2.00;;
14096;SDS011;7125;48.106;11.544;2023-03-23T02:36:22;4.10;;;2.10;;
14096;SDS011;7125;48.106;11.544;2023-03-23T02:39:00;2.40;;;2.20;;
14096;SDS011;7125;48.106;11.544;2023-03-23T02:41:33;3.43;;;2.30;;
14096;SDS011;7125;48.106;11.544;2023-03-23T02:44:06;2.20;;;2.00;;
14096;SDS011;7125;48.106;11.544;2023-03-23T02:46:36;1.97;;;1.87;;
14096;SDS011;7125;48.106;11.544;2023-03-23T02:49:06;1.67;;;1.57;;
14096;SDS011;7125;48.106;11.544;2023-03-23T02:51:36;3.03;;;2.27;;
14096;SDS011;7125;48.106;11.544;2023-03-23T02:54:04;2.87;;;1.80;;
14096;SDS011;7125;48.106;11.544;2023-03-23T02:56:33;1.70;;;1.60;;
14096;SDS011;7125;48.106;11.544;2023-03-23T02:59:07;2.63;;;1.70;;
14096;SDS011;7125;48.106;11.544;2023-03-23T03:04:26;3.63;;;1.90;;
14096;SDS011;7125;48.106;11.544;2023-03-23T03:07:21;2.60;;;1.60;;
14096;SDS011;7125;48.106;11.544;2023-03-23T03:10:04;2.50;;;1.90;;
14096;SDS011;7125;48.106;11.544;2023-03-23T03:12:36;5.10;;;1.83;;
14096;SDS011;7125;48.106;11.544;2023-03-23T03:15:11;1.70;;;1.60;;
14096;SDS011;7125;48.106;11.544;2023-03-23T03:17:49;2.67;;;2.17;;
14096;SDS011;7125;48.106;11.544;2023-03-23T03:20:23;1.77;;;1.43;;
14096;SDS011;7125;48.106;11.544;2023-03-23T03:22:54;2.13;;;1.60;;
14096;SDS011;7125;48.106;11.544;2023-03-23T03:25:25;2.07;;;1.87;;
14096;SDS011;7125;48.106;11.544;2023-03-23T03:27:55;2.57;;;2.27;;
14096;SDS011;7125;48.106;11.544;2023-03-23T03:30:37;6.47;;;2.30;;
14096;SDS011;7125;48.106;11.544;2023-03-23T03:33:06;1.93;;;1.63;;
14096;SDS011;7125;48.106;11.544;2023-03-23T03:35:35;2.10;;;1.90;;
14096;SDS011;7125;48.106;11.544;2023-03-23T03:38:05;3.17;;;1.57;;
14096;SDS011;7125;48.106;11.544;2023-03-23T03:40:33;3.27;;;2.07;;
14096;SDS011;7125;48.106;11.544;2023-03-23T03:43:01;2.23;;;1.70;;
14096;SDS011;7125;48.106;11.544;2023-03-23T03:45:28;1.40;;;1.30;;
14096;SDS011;7125;48.106;11.544;2023-03-23T03:47:55;1.50;;;1.40;;
14096;SDS011;7125;48.106;11.544;2023-03-23T03:50:22;3.70;;;1.77;;
14096;SDS011;7125;48.106;11.544;2023-03-23T03:52:51;2.20;;;2.00;;
14096;SDS011;7125;48.106;11.544;2023-03-23T03:55:20;1.70;;;1.40;;
14096;SDS011;7125;48.106;11.544;2023-03-23T03:57:48;2.00;;;1.60;;
14096;SDS011;7125;48.106;11.544;2023-03-23T04:00:38;2.20;;;1.80;;
14096;SDS011;7125;48.106;11.544;2023-03-23T04:03:06;2.80;;;2.47;;
14096;SDS011;7125;48.106;11.544;2023-03-23T04:05:44;2.77;;;1.57;;
14096;SDS011;7125;48.106;11.544;2023-03-23T04:08:12;2.93;;;2.03;;
14096;SDS011;7125;48.106;11.544;2023-03-23T04:10:41;2.37;;;1.90;;
14096;SDS011;7125;48.106;11.544;2023-03-23T04:13:08;1.40;;;1.30;;
14096;SDS011;7125;48.106;11.544;2023-03-23T04:16:08;1.80;;;1.60;;
14096;SDS011;7125;48.106;11.544;2023-03-23T04:18:35;1.90;;;1.60;;
14096;SDS011;7125;48.106;11.544;2023-03-23T04:21:03;2.87;;;1.90;;
14096;SDS011;7125;48.106;11.544;2023-03-23T04:23:34;1.40;;;1.30;;
14096;SDS011;7125;48.106;11.544;2023-03-23T04:26:03;5.10;;;1.60;;
14096;SDS011;7125;48.106;11.544;2023-03-23T04:28:37;2.30;;;1.37;;
14096;SDS011;7125;48.106;11.544;2023-03-23T04:31:25;1.60;;;1.50;;
14096;SDS011;7125;48.106;11.544;2023-03-23T04:34:12;3.83;;;1.30;;
14096;SDS011;7125;48.106;11.544;2023-03-23T04:36:44;4.37;;;1.73;;
14096;SDS011;7125;48.106;11.544;2023-03-23T04:39:18;4.93;;;1.43;;
14096;SDS011;7125;48.106;11.544;2023-03-23T04:41:45;2.73;;;1.90;;
14096;SDS011;7125;48.106;11.544;2023-03-23T04:44:35;2.07;;;1.80;;
14096;SDS011;7125;48.106;11.544;2023-03-23T04:47:09;1.50;;;1.30;;
14096;SDS011;7125;48.106;11.544;2023-03-23T04:49:43;5.80;;;1.50;;
14096;SDS011;7125;48.106;11.544;2023-03-23T04:52:17;1.53;;;1.43;;
14096;SDS011;7125;48.106;11.544;2023-03-23T04:54:52;2.50;;;2.20;;
14096;SDS011;7125;48.106;11.544;2023-03-23T04:57:21;1.67;;;1.57;;
14096;SDS011;7125;48.106;11.544;2023-03-23T05:00:09;2.13;;;1.83;;
14096;SDS011;7125;48.106;11.544;2023-03-23T05:02:42;2.87;;;2.30;;
14096;SDS011;7125;48.106;11.544;2023-03-23T05:05:12;3.97;;;1.40;;
14096;SDS011;7125;48.106;11.544;2023-03-23T05:07:40;2.33;;;1.60;;
14096;SDS011;7125;48.106;11.544;2023-03-23T05:10:10;2.43;;;1.90;;
14096;SDS011;7125;48.106;11.544;2023-03-23T05:12:38;3.33;;;1.93;;
14096;SDS011;7125;48.106;11.544;2023-03-23T05:15:08;4.00;;;1.73;;
14096;SDS011;7125;48.106;11.544;2023-03-23T05:17:40;4.20;;;1.63;;
14096;SDS011;7125;48.106;11.544;2023-03-23T05:20:13;3.63;;;1.83;;
14096;SDS011;7125;48.106;11.544;2023-03-23T05:22:47;6.50;;;2.10;;
14096;SDS011;7125;48.106;11.544;2023-03-23T05:25:21;2.30;;;2.10;;
14096;SDS011;7125;48.106;11.544;2023-03-23T05:27:56;3.50;;;2.00;;
14096;SDS011;7125;48.106;11.544;2023-03-23T05:30:37;1.60;;;1.50;;
14096;SDS011;7125;48.106;11.544;2023-03-23T05:33:06;1.93;;;1.33;;
14096;SDS011;7125;48.106;11.544;2023-03-23T05:35:57;3.70;;;1.60;;
14096;SDS011;7125;48.106;11.544;2023-03-23T05:38:30;4.77;;;1.90;;
14096;SDS011;7125;48.106;11.544;2023-03-23T05:40:59;2.90;;;1.67;;
14096;SDS011;7125;48.106;11.544;2023-03-23T05:43:35;3.37;;;2.03;;
14096;SDS011;7125;48.106;11.544;2023-03-23T05:46:12;1.93;;;1.77;;
14096;SDS011;7125;48.106;11.544;2023-03-23T05:48:39;2.80;;;1.90;;
14096;SDS011;7125;48.106;11.544;2023-03-23T05:51:14;2.33;;;1.73;;
14096;SDS011;7125;48.106;11.544;2023-03-23T05:53:43;3.23;;;1.97;;
14096;SDS011;7125;48.106;11.544;2023-03-23T05:56:14;3.80;;;1.90;;
14096;SDS011;7125;48.106;11.544;2023-03-23T05:59:00;2.70;;;2.07;;
14096;SDS011;7125;48.106;11.544;2023-03-23T06:01:31;2.50;;;2.30;;
14096;SDS011;7125;48.106;11.544;2023-03-23T06:03:59;1.93;;;1.70;;
14096;SDS011;7125;48.106;11.544;2023-03-23T06:06:36;2.83;;;1.70;;
14096;SDS011;7125;48.106;11.544;2023-03-23T06:09:09;6.00;;;2.30;;
14096;SDS011;7125;48.106;11.544;2023-03-23T06:11:57;2.17;;;1.87;;
14096;SDS011;7125;48.106;11.544;2023-03-23T06:14:42;2.83;;;2.03;;
14096;SDS011;7125;48.106;11.544;2023-03-23T06:17:11;1.93;;;1.70;;
14096;SDS011;7125;48.106;11.544;2023-03-23T06:19:38;2.07;;;1.47;;
14096;SDS011;7125;48.106;11.544;2023-03-23T06:22:15;2.40;;;2.20;;
14096;SDS011;7125;48.106;11.544;2023-03-23T06:24:42;2.60;;;1.83;;
14096;SDS011;7125;48.106;11.544;2023-03-23T06:27:14;4.90;;;2.13;;
14096;SDS011;7125;48.106;11.544;2023-03-23T06:29:43;10.10;;;1.90;;
14096;SDS011;7125;48.106;11.544;2023-03-23T06:32:12;2.53;;;2.30;;
14096;SDS011;7125;48.106;11.544;2023-03-23T06:34:41;4.90;;;1.90;;
14096;SDS011;7125;48.106;11.544;2023-03-23T06:37:47;1.77;;;1.67;;
14096;SDS011;7125;48.106;11.544;2023-03-23T06:40:19;2.80;;;1.90;;
14096;SDS011;7125;48.106;11.544;2023-03-23T06:42:56;3.67;;;2.07;;
14096;SDS011;7125;48.106;11.544;2023-03-23T06:45:43;2.87;;;2.20;;
14096;SDS011;7125;48.106;11.544;2023-03-23T06:48:33;1.67;;;1.57;;
14096;SDS011;7125;48.106;11.544;2023-03-23T06:51:03;4.77;;;2.43;;
14096;SDS011;7125;48.106;11.544;2023-03-23T06:53:31;3.40;;;1.87;;
14096;SDS011;7125;48.106;11.544;2023-03-23T06:55:59;3.50;;;1.77;;
14096;SDS011;7125;48.106;11.544;2023-03-23T06:58:31;4.63;;;2.20;;
14096;SDS011;7125;48.106;11.544;2023-03-23T07:00:58;3.33;;;2.10;;
14096;SDS011;7125;48.106;11.544;2023-03-23T07:03:30;6.93;;;1.87;;
14096;SDS011;7125;48.106;11.544;2023-03-23T07:06:00;3.90;;;2.00;;
14096;SDS011;7125;48.106;11.544;2023-03-23T07:08:32;3.17;;;1.53;;
14096;SDS011;7125;48.106;11.544;2023-03-23T07:11:00;2.70;;;2.10;;
14096;SDS011;7125;48.106;11.544;2023-03-23T07:13:29;2.57;;;1.93;;
14096;SDS011;7125;48.106;11.544;2023-03-23T07:15:59;1.80;;;1.70;;
14096;SDS011;7125;48.106;11.544;2023-03-23T07:18:28;3.47;;;2.17;;
14096;SDS011;7125;48.106;11.544;2023-03-23T07:20:57;4.67;;;1.70;;
14096;SDS011;7125;48.106;11.544;2023-03-23T07:23:29;1.93;;;1.40;;
14096;SDS011;7125;48.106;11.544;2023-03-23T07:26:00;2.70;;;2.20;;
14096;SDS011;7125;48.106;11.544;2023-03-23T07:28:37;5.60;;;1.90;;
14096;SDS011;7125;48.106;11.544;2023-03-23T07:31:16;3.40;;;2.17;;
14096;SDS011;7125;48.106;11.544;2023-03-23T07:33:45;2.10;;;1.90;;
14096;SDS011;7125;48.106;11.544;2023-03-23T07:36:14;3.67;;;1.93;;
14096;SDS011;7125;48.106;11.544;2023-03-23T07:38:42;6.43;;;1.70;;
14096;SDS011;7125;48.106;11.544;2023-03-23T07:41:09;3.63;;;2.10;;
14096;SDS011;7125;48.106;11.544;2023-03-23T07:43:41;2.10;;;1.83;;
14096;SDS011;7125;48.106;11.544;2023-03-23T07:46:08;3.13;;;1.97;;
14096;SDS011;7125;48.106;11.544;2023-03-23T07:48:59;6.83;;;1.90;;
14096;SDS011;7125;48.106;11.544;2023-03-23T07:51:34;2.80;;;2.00;;
14096;SDS011;7125;48.106;11.544;2023-03-23T07:54:04;3.40;;;1.97;;
14096;SDS011;7125;48.106;11.544;2023-03-23T07:56:51;6.80;;;2.10;;
14096;SDS011;7125;48.106;11.544;2023-03-23T07:59:26;2.50;;;1.43;;
14096;SDS011;7125;48.106;11.544;2023-03-23T08:01:56;2.33;;;1.53;;
14096;SDS011;7125;48.106;11.544;2023-03-23T08:04:33;4.13;;;2.10;;
14096;SDS011;7125;48.106;11.544;2023-03-23T08:07:25;2.10;;;1.27;;
14096;SDS011;7125;48.106;11.544;2023-03-23T08:10:12;6.87;;;1.37;;
14096;SDS011;7125;48.106;11.544;2023-03-23T08:12:44;4.43;;;2.07;;
14096;SDS011;7125;48.106;11.544;2023-03-23T08:15:33;2.70;;;2.50;;
14096;SDS011;7125;48.106;11.544;2023-03-23T08:18:21;3.73;;;2.10;;
14096;SDS011;7125;48.106;11.544;2023-03-23T08:21:15;2.43;;;1.97;;
14096;SDS011;7125;48.106;11.544;2023-03-23T08:23:55;3.00;;;1.87;;
14096;SDS011;7125;48.106;11.544;2023-03-23T08:26:32;2.10;;;1.77;;
14096;SDS011;7125;48.106;11.544;2023-03-23T08:29:18;2.70;;;2.10;;
14096;SDS011;7125;48.106;11.544;2023-03-23T08:32:22;2.80;;;2.10;;
14096;SDS011;7125;48.106;11.544;2023-03-23T08:35:06;3.43;;;2.00;;
14096;SDS011;7125;48.106;11.544;2023-03-23T08:37:52;1.70;;;1.60;;
14096;SDS011;7125;48.106;11.544;2023-03-23T08:40:38;3.78;;;2.00;;
14096;SDS011;7125;48.106;11.544;2023-03-23T08:43:34;8.40;;;2.07;;
14096;SDS011;7125;48.106;11.544;2023-03-23T08:46:33;2.97;;;1.90;;
14096;SDS011;7125;48.106;11.544;2023-03-23T08:49:18;5.03;;;1.95;;
14096;SDS011;7125;48.106;11.544;2023-03-23T08:52:18;4.83;;;1.80;;
14096;SDS011;7125;48.106;11.544;2023-03-23T08:54:53;3.63;;;1.85;;
14096;SDS011;7125;48.106;11.544;2023-03-23T08:57:32;3.03;;;2.33;;
14096;SDS011;7125;48.106;11.544;2023-03-23T09:00:18;5.82;;;3.05;;
14096;SDS011;7125;48.106;11.544;2023-03-23T09:02:57;13.68;;;2.67;;
14096;SDS011;7125;48.106;11.544;2023-03-23T09:05:57;2.70;;;1.90;;
14096;SDS011;7125;48.106;11.544;2023-03-23T09:08:33;5.07;;;1.83;;
14096;SDS011;7125;48.106;11.544;2023-03-23T09:11:00;3.53;;;1.80;;
14096;SDS011;7125;48.106;11.544;2023-03-23T09:13:28;3.60;;;1.67;;
14096;SDS011;7125;48.106;11.544;2023-03-23T09:15:56;5.47;;;1.50;;
14096;SDS011;7125;48.106;11.544;2023-03-23T09:18:25;3.03;;;1.90;;
14096;SDS011;7125;48.106;11.544;2023-03-23T09:20:52;3.05;;;1.75;;
14096;SDS011;7125;48.106;11.544;2023-03-23T09:23:22;5.50;;;2.33;;
14096;SDS011;7125;48.106;11.544;2023-03-23T09:26:05;6.50;;;2.28;;
14096;SDS011;7125;48.106;11.544;2023-03-23T09:28:46;4.88;;;1.90;;
14096;SDS011;7125;48.106;11.544;2023-03-23T09:33:49;8.80;;;3.13;;
14096;SDS011;7125;48.106;11.544;2023-03-23T09:36:23;11.38;;;2.85;;
14096;SDS011;7125;48.106;11.544;2023-03-23T09:38:51;5.32;;;2.78;;
14096;SDS011;7125;48.106;11.544;2023-03-23T09:41:28;6.10;;;2.40;;
14096;SDS011;7125;48.106;11.544;2023-03-23T09:44:14;5.70;;;2.50;;
14096;SDS011;7125;48.106;11.544;2023-03-23T09:46:53;2.83;;;2.33;;
14096;SDS011;7125;48.106;11.544;2023-03-23T09:49:25;7.53;;;3.30;;
14096;SDS011;7125;48.106;11.544;2023-03-23T09:51:59;6.00;;;1.92;;
14096;SDS011;7125;48.106;11.544;2023-03-23T09:54:30;8.20;;;2.25;;
14096;SDS011;7125;48.106;11.544;2023-03-23T09:57:01;4.35;;;2.50;;
14096;SDS011;7125;48.106;11.544;2023-03-23T09:59:31;4.43;;;2.22;;
14096;SDS011;7125;48.106;11.544;2023-03-23T10:02:08;6.38;;;2.13;;
14096;SDS011;7125;48.106;11.544;2023-03-23T10:04:39;10.50;;;3.85;;
14096;SDS011;7125;48.106;11.544;2023-03-23T10:07:12;3.10;;;2.90;;
14096;SDS011;7125;48.106;11.544;2023-03-23T10:09:42;7.45;;;3.65;;
14096;SDS011;7125;48.106;11.544;2023-03-23T10:12:14;4.32;;;3.92;;
14096;SDS011;7125;48.106;11.544;2023-03-23T10:14:50;7.78;;;4.50;;
14096;SDS011;7125;48.106;11.544;2023-03-23T10:17:29;4.65;;;3.70;;
14096;SDS011;7125;48.106;11.544;2023-03-23T10:20:02;5.30;;;4.18;;
14096;SDS011;7125;48.106;11.544;2023-03-23T10:22:46;4.07;;;3.67;;
14096;SDS011;7125;48.106;11.544;2023-03-23T10:25:19;6.05;;;4.55;;
14096;SDS011;7125;48.106;11.544;2023-03-23T10:27:49;4.38;;;3.85;;
14096;SDS011;7125;48.106;11.544;2023-03-23T10:30:24;6.13;;;3.72;;
14096;SDS011;7125;48.106;11.544;2023-03-23T10:32:56;3.70;;;3.40;;
14096;SDS011;7125;48.106;11.544;2023-03-23T10:35:31;4.43;;;3.58;;
14096;SDS011;7125;48.106;11.544;2023-03-23T10:38:04;5.30;;;2.95;;
14096;SDS011;7125;48.106;11.544;2023-03-23T10:40:44;11.40;;;3.75;;
14096;SDS011;7125;48.106;11.544;2023-03-23T10:43:15;3.28;;;2.97;;
14096;SDS011;7125;48.106;11.544;2023-03-23T10:45:43;3.63;;;3.10;;
14096;SDS011;7125;48.106;11.544;2023-03-23T10:48:22;5.20;;;3.30;;
14096;SDS011;7125;48.106;11.544;2023-03-23T10:50:54;5.53;;;3.95;;
14096;SDS011;7125;48.106;11.544;2023-03-23T10:53:31;6.43;;;3.42;;
14096;SDS011;7125;48.106;11.544;2023-03-23T10:56:03;3.92;;;3.35;;
14096;SDS011;7125;48.106;11.544;2023-03-23T10:58:34;5.22;;;3.30;;
14096;SDS011;7125;48.106;11.544;2023-03-23T11:01:05;5.18;;;3.40;;
14096;SDS011;7125;48.106;11.544;2023-03-23T11:03:39;4.95;;;3.45;;
14096;SDS011;7125;48.106;11.544;2023-03-23T11:06:11;4.88;;;3.08;;
14096;SDS011;7125;48.106;11.544;2023-03-23T11:08:51;5.85;;;3.00;;
14096;SDS011;7125;48.106;11.544;2023-03-23T11:11:24;3.60;;;3.08;;
14096;SDS011;7125;48.106;11.544;2023-03-23T11:13:58;3.25;;;2.95;;
14096;SDS011;7125;48.106;11.544;2023-03-23T11:16:28;3.45;;;2.95;;
14096;SDS011;7125;48.106;11.544;2023-03-23T11:18:57;2.97;;;2.70;;
14096;SDS011;7125;48.106;11.544;2023-03-23T11:21:27;4.60;;;2.47;;
14096;SDS011;7125;48.106;11.544;2023-03-23T11:23:57;3.53;;;2.50;;
14096;SDS011;7125;48.106;11.544;2023-03-23T11:26:27;2.95;;;2.65;;
14096;SDS011;7125;48.106;11.544;2023-03-23T11:29:03;3.28;;;2.53;;
14096;SDS011;7125;48.106;11.544;2023-03-23T11:31:34;7.78;;;2.55;;
14096;SDS011;7125;48.106;11.544;2023-03-23T11:34:04;2.78;;;2.55;;
14096;SDS011;7125;48.106;11.544;2023-03-23T11:36:40;5.82;;;2.55;;
14096;SDS011;7125;48.106;11.544;2023-03-23T11:39:24;2.72;;;2.50;;
14096;SDS011;7125;48.106;11.544;2023-03-23T11:41:53;5.63;;;2.58;;
14096;SDS011;7125;48.106;11.544;2023-03-23T11:44:22;6.28;;;2.83;;
14096;SDS011;7125;48.106;11.544;2023-03-23T11:46:58;7.60;;;3.15;;
14096;SDS011;7125;48.106;11.544;2023-03-23T11:49:32;3.50;;;2.70;;
14096;SDS011;7125;48.106;11.544;2023-03-23T11:52:10;4.43;;;2.25;;
14096;SDS011;7125;48.106;11.544;2023-03-23T11:54:43;3.33;;;2.53;;
14096;SDS011;7125;48.106;11.544;2023-03-23T11:57:16;7.15;;;3.08;;
14096;SDS011;7125;48.106;11.544;2023-03-23T11:59:44;5.57;;;2.63;;
14096;SDS011;7125;48.106;11.544;2023-03-23T12:05:11;3.03;;;2.72;;
14096;SDS011;7125;48.106;11.544;2023-03-23T12:08:00;3.42;;;2.83;;
14096;SDS011;7125;48.106;11.544;2023-03-23T12:10:41;4.70;;;2.47;;
14096;SDS011;7125;48.106;11.544;2023-03-23T12:13:18;2.92;;;2.40;;
14096;SDS011;7125;48.106;11.544;2023-03-23T12:15:56;3.33;;;2.97;;
14096;SDS011;7125;48.106;11.544;2023-03-23T12:18:38;5.50;;;3.72;;
14096;SDS011;7125;48.106;11.544;2023-03-23T12:21:13;3.20;;;2.90;;
14096;SDS011;7125;48.106;11.544;2023-03-23T12:23:48;11.88;;;3.40;;
14096;SDS011;7125;48.106;11.544;2023-03-23T12:26:27;8.40;;;3.58;;
14096;SDS011;7125;48.106;11.544;2023-03-23T12:31:56;9.15;;;3.03;;
14096;SDS011;7125;48.106;11.544;2023-03-23T12:34:50;5.32;;;3.30;;
14096;SDS011;7125;48.106;11.544;2023-03-23T12:37:30;4.60;;;3.10;;
14096;SDS011;7125;48.106;11.544;2023-03-23T12:43:13;2.55;;;2.25;;
14096;SDS011;7125;48.106;11.544;2023-03-23T12:45:55;2.92;;;2.63;;
14096;SDS011;7125;48.106;11.544;2023-03-23T12:48:32;4.35;;;2.42;;
14096;SDS011;7125;48.106;11.544;2023-03-23T12:51:03;3.40;;;2.95;;
14096;SDS011;7125;48.106;11.544;2023-03-23T12:53:42;3.25;;;2.28;;
14096;SDS011;7125;48.106;11.544;2023-03-23T12:56:17;6.30;;;2.40;;
14096;SDS011;7125;48.106;11.544;2023-03-23T12:58:50;2.63;;;2.42;;
14096;SDS011;7125;48.106;11.544;2023-03-23T13:01:24;3.20;;;2.40;;
14096;SDS011;7125;48.106;11.544;2023-03-23T13:03:55;4.55;;;1.52;;
14096;SDS011;7125;48.106;11.544;2023-03-23T13:06:27;1.63;;;1.45;;
14096;SDS011;7125;48.106;11.544;2023-03-23T13:08:58;3.08;;;1.52;;
14096;SDS011;7125;48.106;11.544;2023-03-23T13:11:32;1.55;;;1.33;;
14096;SDS011;7125;48.106;11.544;2023-03-23T13:14:06;2.92;;;1.98;;
14096;SDS011;7125;48.106;11.544;2023-03-23T13:16:47;4.15;;;1.60;;
14096;SDS011;7125;48.106;11.544;2023-03-23T13:19:23;1.88;;;1.70;;
14096;SDS011;7125;48.106;11.544;2023-03-23T13:21:58;4.53;;;1.30;;
14096;SDS011;7125;48.106;11.544;2023-03-23T13:24:32;1.55;;;1.30;;
14096;SDS011;7125;48.106;11.544;2023-03-23T13:27:04;5.25;;;2.17;;
14096;SDS011;7125;48.106;11.544;2023-03-23T13:29:34;1.52;;;1.42;;
14096;SDS011;7125;48.106;11.544;2023-03-23T13:32:05;5.55;;;1.60;;
14096;SDS011;7125;48.106;11.544;2023-03-23T13:34:37;1.65;;;1.55;;
14096;SDS011;7125;48.106;11.544;2023-03-23T13:37:11;1.77;;;1.55;;
14096;SDS011;7125;48.106;11.544;2023-03-23T13:39:50;2.50;;;1.52;;
14096;SDS011;7125;48.106;11.544;2023-03-23T13:42:22;1.92;;;1.20;;
14096;SDS011;7125;48.106;11.544;2023-03-23T13:47:47;1.65;;;1.40;;
14096;SDS011;7125;48.106;11.544;2023-03-23T13:50:28;2.00;;;1.45;;
14096;SDS011;7125;48.106;11.544;2023-03-23T13:52:58;2.50;;;1.65;;
14096;SDS011;7125;48.106;11.544;2023-03-23T13:55:36;1.17;;;1.08;;
14096;SDS011;7125;48.106;11.544;2023-03-23T13:58:20;3.70;;;1.75;;
14096;SDS011;7125;48.106;11.544;2023-03-23T14:01:00;1.95;;;1.60;;
14096;SDS011;7125;48.106;11.544;2023-03-23T14:03:36;1.85;;;1.27;;
14096;SDS011;7125;48.106;11.544;2023-03-23T14:06:07;5.53;;;1.70;;
14096;SDS011;7125;48.106;11.544;2023-03-23T14:09:03;2.88;;;1.92;;
14096;SDS011;7125;48.106;11.544;2023-03-23T14:11:34;3.00;;;1.55;;
14096;SDS011;7125;48.106;11.544;2023-03-23T14:14:14;3.50;;;1.67;;
14096;SDS011;7125;48.106;11.544;2023-03-23T14:16:49;3.97;;;1.50;;
14096;SDS011;7125;48.106;11.544;2023-03-23T14:19:18;1.33;;;1.23;;
14096;SDS011;7125;48.106;11.544;2023-03-23T14:21:49;2.92;;;1.45;;
14096;SDS011;7125;48.106;11.544;2023-03-23T14:24:20;2.13;;;1.65;;
14096;SDS011;7125;48.106;11.544;2023-03-23T14:26:50;2.65;;;1.55;;
14096;SDS011;7125;48.106;11.544;2023-03-23T14:29:19;2.28;;;1.20;;
14096;SDS011;7125;48.106;11.544;2023-03-23T14:32:01;2.42;;;1.45;;
14096;SDS011;7125;48.106;11.544;2023-03-23T14:34:31;4.28;;;1.40;;
14096;SDS011;7125;48.106;11.544;2023-03-23T14:36:59;4.63;;;1.30;;
14096;SDS011;7125;48.106;11.544;2023-03-23T14:39:27;4.38;;;1.55;;
14096;SDS011;7125;48.106;11.544;2023-03-23T14:42:00;2.25;;;1.42;;
14096;SDS011;7125;48.106;11.544;2023-03-23T14:44:29;3.70;;;1.63;;
14096;SDS011;7125;48.106;11.544;2023-03-23T14:47:02;3.22;;;1.50;;
14096;SDS011;7125;48.106;11.544;2023-03-23T14:49:31;1.80;;;1.30;;
14096;SDS011;7125;48.106;11.544;2023-03-23T14:52:03;6.18;;;1.23;;
14096;SDS011;7125;48.106;11.544;2023-03-23T14:54:36;1.25;;;1.15;;
14096;SDS011;7125;48.106;11.544;2023-03-23T14:57:10;2.13;;;1.52;;
14096;SDS011;7125;48.106;11.544;2023-03-23T14:59:40;2.13;;;1.38;;
14096;SDS011;7125;48.106;11.544;2023-03-23T15:02:12;3.53;;;1.30;;
14096;SDS011;7125;48.106;11.544;2023-03-23T15:04:45;2.42;;;1.60;;
14096;SDS011;7125;48.106;11.544;2023-03-23T15:07:15;4.18;;;1.55;;
14096;SDS011;7125;48.106;11.544;2023-03-23T15:09:43;4.22;;;1.60;;
14096;SDS011;7125;48.106;11.544;2023-03-23T15:12:18;4.70;;;1.42;;
14096;SDS011;7125;48.106;11.544;2023-03-23T15:14:48;1.25;;;1.13;;
14096;SDS011;7125;48.106;11.544;2023-03-23T15:17:19;3.15;;;1.33;;
14096;SDS011;7125;48.106;11.544;2023-03-23T15:19:50;2.53;;;1.88;;
14096;SDS011;7125;48.106;11.544;2023-03-23T15:22:19;4.57;;;1.90;;
14096;SDS011;7125;48.106;11.544;2023-03-23T15:24:49;3.45;;;1.52;;
14096;SDS011;7125;48.106;11.544;2023-03-23T15:27:23;1.48;;;1.13;;
14096;SDS011;7125;48.106;11.544;2023-03-23T15:29:53;1.60;;;1.50;;
14096;SDS011;7125;48.106;11.544;2023-03-23T15:32:25;2.55;;;1.65;;
14096;SDS011;7125;48.106;11.544;2023-03-23T15:34:54;3.83;;;1.58;;
14096;SDS011;7125;48.106;11.544;2023-03-23T15:37:25;3.08;;;1.65;;
14096;SDS011;7125;48.106;11.544;2023-03-23T15:39:54;1.73;;;1.60;;
14096;SDS011;7125;48.106;11.544;2023-03-23T15:42:23;2.58;;;1.85;;
14096;SDS011;7125;48.106;11.544;2023-03-23T15:44:57;3.97;;;1.95;;
14096;SDS011;7125;48.106;11.544;2023-03-23T15:47:38;5.78;;;1.40;;
14096;SDS011;7125;48.106;11.544;2023-03-23T15:50:12;2.47;;;1.70;;
14096;SDS011;7125;48.106;11.544;2023-03-23T15:52:42;3.38;;;1.40;;